Hauptseite
METAR-TAF:

METAR-TAF

Flughäfen :

Flughafen Marka International

Amman, Jordanien

Breite: 31-59N, Länge: 035-59E, Höhe: 767 m

Beobachtung

Neuester Wetterbericht von vor 39 Minuten, um 12:00 UTC
Windstille
Temperatur 24°C
Luftfeuchtigkeit 22%
Luftdruck 1018 hPa
Sichtweite: 6000 m

METAR: OJAM 261200Z 00000KT 6000 NSC 24/01 Q1018 NOSIG

Zeit: 15:39 (12:39 UTC)

Prognose

Neuester Wetterbericht von vor 1 Stunde und 39 Minuten, um 11:00 UTC
Gültige Prognose vom 26 um 12 UTC bis 27 um 18 UTC
Wind 8 kt aus Ost/Nordost
Sichtweite: 5000 m
trockener Dunst
Wahrscheinlichkeit 40%
vom 27 um 02 UTC bis 27 um 06 UTC
Sichtweite: 3000 m

TAF: OJAM 261100Z 2612/2718 07008KT 5000 HZ NSC PROB40 2702/2706 3000

Wetterbeobachtungen und Prognosen von mehr als 4000 Flughäfen (METAR und TAF Bericht).

Die verfügbaren Stationen werden durch gelbe und rote Markierungen auf der Karte dargestellt.

Führen Sie die Maus auf sie, um den Namen der Station zu sehen.

Darauf klicken, um die Beobachtung von Wetterbeobachtungen und Prognosen zu sehen.

Um die Karte zu ändern : klicken Sie auf den grünen Tasten mit einem schwarzen Kreuz Zum Vergrößern, auf den grünen Button mit einem Gedankenstrich zu verkleinern, oder auf die grünen Pfeile für benachbarte Karten.


METAR-TAF: